createdAt,value
2023-04-16T00:02:04.376Z,102139.13
2023-04-16T00:04:31.825Z,102144.72
2023-04-16T00:06:58.855Z,102151.34
2023-04-16T00:09:25.915Z,102151.41
2023-04-16T00:11:53.129Z,102145.53
2023-04-16T00:14:20.465Z,102150.31
2023-04-16T00:16:47.652Z,102150.31
2023-04-16T00:19:14.533Z,102143.06
2023-04-16T00:21:41.423Z,102141.38
2023-04-16T00:24:08.349Z,102151.22
2023-04-16T00:26:35.176Z,102155.22
2023-04-16T00:29:02.109Z,102154.09
2023-04-16T00:31:31.025Z,102161.53
2023-04-16T00:33:59.064Z,102157.25
2023-04-16T00:36:28.074Z,102158.06
2023-04-16T00:38:55.711Z,102155.56
2023-04-16T00:41:25.353Z,102155.53
2023-04-16T00:43:52.611Z,102160.78
2023-04-16T00:46:21.369Z,102164.59
2023-04-16T00:48:49.216Z,102164.50
2023-04-16T00:51:16.860Z,102172.94
2023-04-16T00:53:45.728Z,102172.13
2023-04-16T00:56:13.448Z,102173.19
2023-04-16T00:58:40.379Z,102174.25
2023-04-16T01:01:07.328Z,102179.31
2023-04-16T01:03:39.995Z,102168.28
2023-04-16T01:06:07.780Z,102175.22
2023-04-16T01:08:34.826Z,102172.72
2023-04-16T01:11:02.518Z,102178.06
2023-04-16T01:13:29.690Z,102181.78
2023-04-16T01:15:56.701Z,102181.63
2023-04-16T01:18:24.184Z,102181.00
2023-04-16T01:20:51.607Z,102179.53
2023-04-16T01:23:19.349Z,102182.94
2023-04-16T01:25:47.041Z,102194.63
2023-04-16T01:28:14.017Z,102190.94
2023-04-16T01:30:43.179Z,102195.13
2023-04-16T01:33:21.729Z,102193.25
2023-04-16T01:35:48.793Z,102201.78
2023-04-16T01:38:16.237Z,102196.97
2023-04-16T01:40:43.983Z,102199.31
2023-04-16T01:43:12.418Z,102202.69
2023-04-16T01:45:39.435Z,102200.53
2023-04-16T01:48:06.926Z,102196.97
2023-04-16T01:50:34.022Z,102197.53
2023-04-16T01:53:02.368Z,102196.03
2023-04-16T01:55:29.401Z,102195.94
2023-04-16T01:57:56.483Z,102205.78
2023-04-16T02:00:27.149Z,102210.38
2023-04-16T02:02:54.455Z,102208.69
2023-04-16T02:05:26.556Z,102213.91
2023-04-16T02:07:53.565Z,102220.78
2023-04-16T02:10:20.885Z,102226.25
2023-04-16T02:12:48.448Z,102219.38
2023-04-16T02:15:16.619Z,102220.44
2023-04-16T02:17:44.061Z,102227.63
2023-04-16T02:20:11.482Z,102218.13
2023-04-16T02:22:44.891Z,102210.59
2023-04-16T02:25:16.181Z,102225.50
2023-04-16T02:27:43.868Z,102218.03
2023-04-16T02:30:23.359Z,102215.91
2023-04-16T02:32:51.714Z,102220.38
2023-04-16T02:35:19.586Z,102216.50
2023-04-16T02:37:46.645Z,102222.28
2023-04-16T02:40:13.449Z,102215.22
2023-04-16T02:42:40.521Z,102224.97
2023-04-16T02:45:08.851Z,102224.81
2023-04-16T02:47:35.956Z,102222.38
2023-04-16T02:50:04.028Z,102224.72
2023-04-16T02:52:32.476Z,102229.31
2023-04-16T02:55:00.028Z,102225.31
2023-04-16T02:57:27.117Z,102227.78
2023-04-16T02:59:54.045Z,102226.25
2023-04-16T03:02:21.014Z,102220.38
2023-04-16T03:04:48.187Z,102222.94
2023-04-16T03:07:15.287Z,102229.00
2023-04-16T03:09:42.179Z,102230.84
2023-04-16T03:12:09.187Z,102238.41
2023-04-16T03:14:36.404Z,102233.69
2023-04-16T03:17:03.322Z,102235.19
2023-04-16T03:19:30.556Z,102232.28
2023-04-16T03:21:57.555Z,102245.59
2023-04-16T03:24:24.404Z,102241.03
2023-04-16T03:26:51.351Z,102243.34
2023-04-16T03:29:21.555Z,102242.22
2023-04-16T03:31:48.961Z,102252.63
2023-04-16T03:34:16.216Z,102253.44
2023-04-16T03:36:43.150Z,102248.91
2023-04-16T03:39:10.387Z,102251.72
2023-04-16T03:41:37.700Z,102256.44
2023-04-16T03:44:04.710Z,102258.50
2023-04-16T03:46:35.813Z,102263.66
2023-04-16T03:49:02.809Z,102262.97
2023-04-16T03:51:29.817Z,102258.75
2023-04-16T03:53:57.310Z,102261.75
2023-04-16T03:56:25.981Z,102263.69
2023-04-16T03:58:53.637Z,102263.53
2023-04-16T04:01:20.682Z,102260.94
2023-04-16T04:03:47.733Z,102262.88
2023-04-16T04:06:15.894Z,102262.72
2023-04-16T04:08:43.030Z,102260.13
2023-04-16T04:11:10.431Z,102266.25
2023-04-16T04:13:39.203Z,102263.03
2023-04-16T04:16:06.412Z,102260.69
2023-04-16T04:18:33.526Z,102268.81
2023-04-16T04:21:00.525Z,102277.94
2023-04-16T04:23:30.258Z,102279.94
2023-04-16T04:25:57.219Z,102283.03
2023-04-16T04:28:24.806Z,102281.81
2023-04-16T04:30:51.754Z,102281.38
2023-04-16T04:33:19.087Z,102282.19
2023-04-16T04:35:47.667Z,102288.63
2023-04-16T04:38:16.239Z,102292.09
2023-04-16T04:40:43.237Z,102289.13
2023-04-16T04:43:10.158Z,102289.13
2023-04-16T04:45:37.196Z,102292.59
2023-04-16T04:48:05.456Z,102291.56
2023-04-16T04:50:32.667Z,102290.41
2023-04-16T04:52:59.456Z,102289.91
2023-04-16T04:55:27.036Z,102294.25
2023-04-16T04:57:53.812Z,102292.38
2023-04-16T05:00:21.481Z,102296.72
2023-04-16T05:02:53.841Z,102299.38
2023-04-16T05:05:21.077Z,102306.47
2023-04-16T05:07:47.830Z,102295.63
2023-04-16T05:10:14.819Z,102299.66
2023-04-16T05:12:41.724Z,102300.34
2023-04-16T05:15:09.112Z,102299.34
2023-04-16T05:17:35.988Z,102302.34
2023-04-16T05:20:02.927Z,102303.28
2023-04-16T05:22:29.774Z,102305.94
2023-04-16T05:24:56.656Z,102311.59
2023-04-16T05:27:23.587Z,102315.63
2023-04-16T05:29:50.491Z,102319.47
2023-04-16T05:32:17.428Z,102317.41
2023-04-16T05:34:44.251Z,102312.59
2023-04-16T05:37:11.222Z,102324.59
2023-04-16T05:39:38.054Z,102323.09
2023-04-16T05:42:04.885Z,102318.06
2023-04-16T05:44:31.894Z,102328.16
2023-04-16T05:46:58.762Z,102320.47
2023-04-16T05:49:25.693Z,102338.97
2023-04-16T05:51:52.493Z,102325.38
2023-04-16T05:54:19.399Z,102340.41
2023-04-16T05:56:46.226Z,102338.78
2023-04-16T05:59:13.127Z,102344.72
2023-04-16T06:01:41.299Z,102347.69
2023-04-16T06:04:08.269Z,102348.50
2023-04-16T06:06:37.555Z,102345.94
2023-04-16T06:09:04.547Z,102346.97
2023-04-16T06:11:31.435Z,102358.56
2023-04-16T06:13:58.313Z,102365.13
2023-04-16T06:16:25.586Z,102365.25
2023-04-16T06:18:52.501Z,102364.44
2023-04-16T06:21:19.418Z,102365.56
2023-04-16T06:23:46.276Z,102373.59
2023-04-16T06:26:13.041Z,102372.09
2023-04-16T06:28:39.834Z,102373.25
2023-04-16T06:31:06.739Z,102376.59
2023-04-16T06:33:33.579Z,102381.53
2023-04-16T06:36:00.418Z,102373.91
2023-04-16T06:38:27.422Z,102381.50
2023-04-16T06:40:54.361Z,102377.22
2023-04-16T06:43:21.854Z,102383.41
2023-04-16T06:45:48.694Z,102383.16
2023-04-16T06:48:15.695Z,102389.81
2023-04-16T06:50:42.605Z,102398.94
2023-04-16T06:53:09.521Z,102397.66
2023-04-16T06:55:36.386Z,102396.59
2023-04-16T06:58:03.862Z,102394.47
2023-04-16T07:00:30.739Z,102391.50
2023-04-16T07:02:58.692Z,102399.00
2023-04-16T07:05:26.351Z,102402.19
2023-04-16T07:07:53.172Z,102410.75
2023-04-16T07:10:19.988Z,102409.16
2023-04-16T07:12:46.807Z,102409.13
2023-04-16T07:15:13.743Z,102421.72
2023-04-16T07:17:40.693Z,102413.16
2023-04-16T07:20:08.332Z,102423.13
2023-04-16T07:22:35.137Z,102419.31
2023-04-16T07:25:01.986Z,102425.22
2023-04-16T07:27:28.784Z,102430.00
2023-04-16T07:29:55.980Z,102424.59
2023-04-16T07:32:23.054Z,102436.69
2023-04-16T07:34:49.889Z,102421.88
2023-04-16T07:37:16.702Z,102435.53
2023-04-16T07:39:43.530Z,102428.78
2023-04-16T07:42:10.782Z,102430.19
2023-04-16T07:44:37.663Z,102433.69
2023-04-16T07:47:05.766Z,102430.22
2023-04-16T07:49:32.866Z,102435.59
2023-04-16T07:51:59.682Z,102449.00
2023-04-16T07:54:28.490Z,102450.63
2023-04-16T07:56:56.120Z,102453.56
2023-04-16T07:59:24.306Z,102452.19
2023-04-16T08:01:54.204Z,102451.13
2023-04-16T08:04:25.620Z,102455.09
2023-04-16T08:06:52.916Z,102456.16
2023-04-16T08:09:21.096Z,102462.19
2023-04-16T08:11:49.439Z,102464.94
2023-04-16T08:14:17.618Z,102466.47
2023-04-16T08:16:44.716Z,102465.69
2023-04-16T08:19:11.786Z,102470.81
2023-04-16T08:21:39.049Z,102469.75
2023-04-16T08:24:06.276Z,102468.69
2023-04-16T08:26:33.116Z,102477.31
2023-04-16T08:28:59.963Z,102477.91
2023-04-16T08:31:27.025Z,102474.06
2023-04-16T08:33:53.912Z,102482.03
2023-04-16T08:36:21.051Z,102484.69
2023-04-16T08:38:47.837Z,102482.81
2023-04-16T08:41:15.219Z,102495.59
2023-04-16T08:43:48.766Z,102491.38
2023-04-16T08:46:17.961Z,102489.88
2023-04-16T08:48:49.625Z,102498.41
2023-04-16T08:51:18.637Z,102489.88
2023-04-16T08:54:05.794Z,102490.41
2023-04-16T08:56:36.916Z,102503.63
2023-04-16T08:59:07.294Z,102493.22
2023-04-16T09:01:35.635Z,102498.50
2023-04-16T09:04:03.551Z,102500.16
2023-04-16T09:06:31.761Z,102501.94
2023-04-16T09:08:59.727Z,102507.81
2023-04-16T09:11:26.842Z,102502.19
2023-04-16T09:13:54.035Z,102502.88
2023-04-16T09:16:21.683Z,102503.66
2023-04-16T09:18:48.586Z,102506.41
2023-04-16T09:21:15.604Z,102507.00
2023-04-16T09:23:42.534Z,102509.34
2023-04-16T09:26:09.501Z,102511.75
2023-04-16T09:28:47.119Z,102512.56
2023-04-16T09:31:13.963Z,102518.09
2023-04-16T09:33:41.788Z,102517.28
2023-04-16T09:36:09.273Z,102519.47
2023-04-16T09:38:50.166Z,102529.41
2023-04-16T09:41:17.438Z,102520.97
2023-04-16T09:43:59.247Z,102529.56
2023-04-16T09:46:36.717Z,102527.56
2023-04-16T09:49:16.971Z,102527.13
2023-04-16T09:51:48.258Z,102528.84
2023-04-16T09:54:16.063Z,102527.06
2023-04-16T09:56:44.756Z,102524.16
2023-04-16T09:59:21.718Z,102529.16
2023-04-16T10:02:14.343Z,102526.81
2023-04-16T10:04:51.150Z,102526.47
2023-04-16T10:07:19.312Z,102522.22
2023-04-16T10:09:48.736Z,102528.63
2023-04-16T10:12:16.368Z,102529.97
2023-04-16T10:14:43.411Z,102522.84
2023-04-16T10:17:10.514Z,102528.81
2023-04-16T10:19:37.917Z,102527.66
2023-04-16T10:22:05.680Z,102531.53
2023-04-16T10:24:34.548Z,102537.00
2023-04-16T10:27:01.596Z,102540.53
2023-04-16T10:29:30.248Z,102539.28
2023-04-16T10:31:57.950Z,102539.72
2023-04-16T10:34:26.093Z,102539.84
2023-04-16T10:36:54.283Z,102541.19
2023-04-16T10:39:24.007Z,102531.38
2023-04-16T10:41:51.292Z,102539.78
2023-04-16T10:44:19.718Z,102539.16
2023-04-16T10:46:49.985Z,102537.06
2023-04-16T10:49:19.345Z,102537.16
2023-04-16T10:52:00.792Z,102546.06
2023-04-16T10:54:32.594Z,102536.44
2023-04-16T10:57:04.533Z,102536.41
2023-04-16T10:59:35.057Z,102540.63
2023-04-16T11:02:08.080Z,102535.41
2023-04-16T11:04:37.648Z,102534.41
2023-04-16T11:07:07.030Z,102532.31
2023-04-16T11:09:52.400Z,102532.56
2023-04-16T11:12:22.485Z,102534.44
2023-04-16T11:14:55.132Z,102524.94
2023-04-16T11:17:22.420Z,102522.03
2023-04-16T11:19:49.486Z,102524.94
2023-04-16T11:22:18.119Z,102532.81
2023-04-16T11:24:46.550Z,102525.53
2023-04-16T11:27:14.744Z,102519.94
2023-04-16T11:29:42.412Z,102522.84
2023-04-16T11:32:09.245Z,102521.47
2023-04-16T11:34:45.023Z,102530.78
2023-04-16T11:37:11.957Z,102517.28
2023-04-16T11:39:49.880Z,102518.94
2023-04-16T11:42:23.261Z,102519.63
2023-04-16T11:44:55.210Z,102518.56
2023-04-16T11:47:24.196Z,102519.34
2023-04-16T11:49:51.661Z,102522.91
2023-04-16T11:52:33.797Z,102523.53
2023-04-16T11:55:00.645Z,102526.84
2023-04-16T11:57:31.612Z,102521.97
2023-04-16T12:00:01.337Z,102527.47
2023-04-16T12:02:50.079Z,102526.59
2023-04-16T12:05:35.183Z,102526.25
2023-04-16T12:08:04.398Z,102533.91
2023-04-16T12:10:35.315Z,102530.91
2023-04-16T12:13:15.618Z,102526.88
2023-04-16T12:15:57.325Z,102527.41
2023-04-16T12:18:28.938Z,102534.69
2023-04-16T12:20:55.805Z,102530.69
2023-04-16T12:23:27.682Z,102538.44
2023-04-16T12:25:55.558Z,102538.44
2023-04-16T12:28:34.290Z,102538.81
2023-04-16T12:31:02.064Z,102530.22
2023-04-16T12:33:29.604Z,102533.34
2023-04-16T12:35:56.934Z,102533.53
2023-04-16T12:38:24.629Z,102531.72
2023-04-16T12:40:52.170Z,102523.88
2023-04-16T12:43:19.993Z,102522.91
2023-04-16T12:45:46.964Z,102528.78
2023-04-16T12:48:13.841Z,102527.47
2023-04-16T12:50:40.843Z,102519.19
2023-04-16T12:53:07.789Z,102522.31
2023-04-16T12:55:34.650Z,102529.19
2023-04-16T12:58:01.880Z,102529.56
2023-04-16T13:00:28.747Z,102532.47
2023-04-16T13:02:56.347Z,102527.84
2023-04-16T13:05:23.307Z,102521.59
2023-04-16T13:07:50.139Z,102527.22
2023-04-16T13:10:17.616Z,102531.66
2023-04-16T13:12:44.551Z,102532.50
2023-04-16T13:15:11.758Z,102530.31
2023-04-16T13:17:38.645Z,102535.19
2023-04-16T13:20:06.064Z,102526.91
2023-04-16T13:22:33.550Z,102528.47
2023-04-16T13:25:00.597Z,102523.72
2023-04-16T13:27:27.494Z,102526.75
2023-04-16T13:29:54.405Z,102516.31
2023-04-16T13:32:21.431Z,102522.72
2023-04-16T13:34:48.329Z,102524.81
2023-04-16T13:37:15.199Z,102523.16
2023-04-16T13:39:42.034Z,102522.72
2023-04-16T13:42:08.834Z,102528.34
2023-04-16T13:44:35.756Z,102519.84
2023-04-16T13:47:02.720Z,102522.78
2023-04-16T13:49:29.868Z,102523.34
2023-04-16T13:51:56.765Z,102518.44
2023-04-16T13:54:23.611Z,102522.66
2023-04-16T13:56:51.372Z,102518.72
2023-04-16T13:59:18.694Z,102534.28
2023-04-16T14:01:45.693Z,102518.16
2023-04-16T14:04:12.652Z,102513.19
2023-04-16T14:06:39.466Z,102515.66
2023-04-16T14:09:06.328Z,102515.72
2023-04-16T14:11:33.375Z,102514.13
2023-04-16T14:14:00.289Z,102518.94
2023-04-16T14:16:27.763Z,102516.56
2023-04-16T14:18:54.718Z,102513.53
2023-04-16T14:21:21.637Z,102518.25
2023-04-16T14:23:48.503Z,102516.06
2023-04-16T14:26:15.802Z,102515.59
2023-04-16T14:28:42.669Z,102505.81
2023-04-16T14:31:09.623Z,102508.50
2023-04-16T14:33:37.103Z,102514.00
2023-04-16T14:36:04.398Z,102507.19
2023-04-16T14:38:31.473Z,102508.34
2023-04-16T14:40:58.576Z,102510.81
2023-04-16T14:43:25.411Z,102513.44
2023-04-16T14:45:52.912Z,102515.78
2023-04-16T14:48:19.850Z,102507.69
2023-04-16T14:50:46.790Z,102518.72
2023-04-16T14:53:14.034Z,102518.72
2023-04-16T14:55:41.048Z,102516.34
2023-04-16T14:58:08.013Z,102517.28
2023-04-16T15:00:35.783Z,102517.06
2023-04-16T15:03:02.856Z,102522.69
2023-04-16T15:05:31.714Z,102522.91
2023-04-16T15:07:58.606Z,102526.06
2023-04-16T15:10:25.525Z,102522.13
2023-04-16T15:12:52.384Z,102524.16
2023-04-16T15:15:19.284Z,102524.25
2023-04-16T15:17:46.195Z,102524.66
2023-04-16T15:20:13.667Z,102526.69
2023-04-16T15:22:40.776Z,102517.97
2023-04-16T15:25:08.134Z,102534.69
2023-04-16T15:27:35.092Z,102526.53
2023-04-16T15:30:02.128Z,102530.72
2023-04-16T15:32:29.079Z,102517.41
2023-04-16T15:34:56.330Z,102530.09
2023-04-16T15:37:24.098Z,102528.28
2023-04-16T15:39:51.042Z,102529.84
2023-04-16T15:42:17.925Z,102543.19
2023-04-16T15:44:44.878Z,102545.56
2023-04-16T15:47:11.744Z,102537.31
2023-04-16T15:49:38.684Z,102541.69
2023-04-16T15:52:05.886Z,102540.22
2023-04-16T15:54:32.811Z,102541.47
2023-04-16T15:56:59.672Z,102553.91
2023-04-16T15:59:27.090Z,102549.91
2023-04-16T16:01:54.083Z,102544.44
2023-04-16T16:04:26.521Z,102552.41
2023-04-16T16:06:54.116Z,102548.84
2023-04-16T16:09:26.015Z,102552.53
2023-04-16T16:11:54.550Z,102545.50
2023-04-16T16:14:22.476Z,102545.28
2023-04-16T16:16:49.429Z,102565.19
2023-04-16T16:19:16.739Z,102547.81
2023-04-16T16:21:43.709Z,102547.91
2023-04-16T16:24:10.491Z,102546.47
2023-04-16T16:26:37.764Z,102545.41
2023-04-16T16:29:05.824Z,102546.50
2023-04-16T16:31:32.714Z,102545.34
2023-04-16T16:33:59.601Z,102547.91
2023-04-16T16:36:26.791Z,102548.13
2023-04-16T16:38:53.674Z,102542.00
2023-04-16T16:41:20.793Z,102546.59
2023-04-16T16:43:47.662Z,102554.31
2023-04-16T16:46:14.603Z,102554.56
2023-04-16T16:48:41.439Z,102550.81
2023-04-16T16:51:11.534Z,102549.97
2023-04-16T16:53:38.435Z,102548.41
2023-04-16T16:56:05.558Z,102553.28
2023-04-16T16:58:32.348Z,102562.69
2023-04-16T17:00:59.357Z,102557.19
2023-04-16T17:03:26.373Z,102559.88
2023-04-16T17:05:53.282Z,102562.31
2023-04-16T17:08:20.138Z,102567.19
2023-04-16T17:10:46.989Z,102558.38
2023-04-16T17:13:15.382Z,102558.06
2023-04-16T17:15:42.183Z,102565.34
2023-04-16T17:18:09.041Z,102562.72
2023-04-16T17:20:35.951Z,102560.34
2023-04-16T17:23:03.244Z,102560.44
2023-04-16T17:25:30.301Z,102561.09
2023-04-16T17:27:57.215Z,102568.50
2023-04-16T17:30:26.114Z,102567.41
2023-04-16T17:32:55.988Z,102568.50
2023-04-16T17:35:23.071Z,102574.13
2023-04-16T17:37:49.911Z,102577.91
2023-04-16T17:40:18.424Z,102570.03
2023-04-16T17:42:45.760Z,102576.13
2023-04-16T17:45:12.912Z,102574.28
2023-04-16T17:47:39.789Z,102580.47
2023-04-16T17:50:07.741Z,102579.28
2023-04-16T17:52:34.566Z,102581.19
2023-04-16T17:55:01.774Z,102589.09
2023-04-16T17:57:29.060Z,102579.31
2023-04-16T17:59:56.556Z,102583.91
2023-04-16T18:02:23.731Z,102580.22
2023-04-16T18:04:51.623Z,102595.59
2023-04-16T18:07:18.577Z,102593.78
2023-04-16T18:09:45.492Z,102600.28
2023-04-16T18:12:12.346Z,102594.88
2023-04-16T18:14:40.820Z,102594.69
2023-04-16T18:17:07.694Z,102605.22
2023-04-16T18:19:35.758Z,102604.19
2023-04-16T18:22:02.878Z,102607.47
2023-04-16T18:24:29.899Z,102611.78
2023-04-16T18:26:56.985Z,102614.22
2023-04-16T18:29:25.256Z,102613.72
2023-04-16T18:31:52.549Z,102614.78
2023-04-16T18:34:19.623Z,102618.88
2023-04-16T18:36:46.939Z,102622.63
2023-04-16T18:39:13.882Z,102621.31
2023-04-16T18:41:41.847Z,102618.34
2023-04-16T18:44:10.897Z,102622.41
2023-04-16T18:46:37.826Z,102630.22
2023-04-16T18:49:04.729Z,102636.97
2023-04-16T18:51:31.871Z,102645.84
2023-04-16T18:53:58.811Z,102647.19
2023-04-16T18:56:25.745Z,102653.94
2023-04-16T18:58:52.667Z,102647.47
2023-04-16T19:01:19.595Z,102649.63
2023-04-16T19:03:46.647Z,102660.91
2023-04-16T19:06:13.528Z,102660.34
2023-04-16T19:08:40.478Z,102656.38
2023-04-16T19:11:07.309Z,102662.25
2023-04-16T19:13:34.295Z,102660.94
2023-04-16T19:16:02.401Z,102667.09
2023-04-16T19:18:29.321Z,102669.81
2023-04-16T19:21:02.281Z,102671.16
2023-04-16T19:23:29.612Z,102675.69
2023-04-16T19:25:57.212Z,102678.16
2023-04-16T19:28:24.988Z,102681.88
2023-04-16T19:30:52.818Z,102674.66
2023-04-16T19:33:20.197Z,102688.09
2023-04-16T19:35:47.528Z,102687.81
2023-04-16T19:38:14.365Z,102682.97
2023-04-16T19:40:44.562Z,102691.28
2023-04-16T19:43:11.582Z,102686.72
2023-04-16T19:45:46.353Z,102696.34
2023-04-16T19:48:13.225Z,102697.72
2023-04-16T19:50:44.055Z,102704.69
2023-04-16T19:53:11.762Z,102696.88
2023-04-16T19:55:42.139Z,102706.56
2023-04-16T19:58:09.729Z,102705.19
2023-04-16T20:00:38.872Z,102708.69
2023-04-16T20:03:06.487Z,102701.69
2023-04-16T20:05:33.736Z,102708.94
2023-04-16T20:08:00.709Z,102702.22
2023-04-16T20:10:28.147Z,102711.59
2023-04-16T20:12:54.994Z,102716.44
2023-04-16T20:15:21.887Z,102710.78
2023-04-16T20:17:48.764Z,102717.50
2023-04-16T20:20:16.592Z,102711.56
2023-04-16T20:22:43.886Z,102725.50
2023-04-16T20:25:10.920Z,102719.06
2023-04-16T20:27:37.879Z,102723.59
2023-04-16T20:30:06.455Z,102723.34
2023-04-16T20:32:33.458Z,102725.44
2023-04-16T20:35:00.577Z,102729.47
2023-04-16T20:37:29.340Z,102727.03
2023-04-16T20:39:56.574Z,102737.97
2023-04-16T20:42:26.514Z,102730.47
2023-04-16T20:44:56.785Z,102727.50
2023-04-16T20:47:23.978Z,102728.81
2023-04-16T20:49:53.118Z,102728.59
2023-04-16T20:52:20.341Z,102731.75
2023-04-16T20:54:48.220Z,102721.28
2023-04-16T20:57:15.207Z,102734.97
2023-04-16T20:59:42.460Z,102738.69
2023-04-16T21:02:09.568Z,102731.19
2023-04-16T21:04:36.548Z,102728.78
2023-04-16T21:07:04.414Z,102730.38
2023-04-16T21:09:31.790Z,102732.00
2023-04-16T21:11:58.739Z,102730.59
2023-04-16T21:14:25.618Z,102739.94
2023-04-16T21:16:52.505Z,102735.13
2023-04-16T21:19:19.485Z,102727.59
2023-04-16T21:21:46.814Z,102738.81
2023-04-16T21:24:13.837Z,102733.41
2023-04-16T21:26:40.932Z,102737.41
2023-04-16T21:29:07.871Z,102741.09
2023-04-16T21:31:34.963Z,102742.75
2023-04-16T21:34:02.016Z,102741.09
2023-04-16T21:36:29.438Z,102733.59
2023-04-16T21:38:56.408Z,102726.34
2023-04-16T21:41:27.812Z,102730.91
2023-04-16T21:43:54.734Z,102730.94
2023-04-16T21:46:23.630Z,102726.09
2023-04-16T21:48:51.025Z,102737.84
2023-04-16T21:51:18.253Z,102734.41
2023-04-16T21:53:45.113Z,102732.47
2023-04-16T21:56:12.005Z,102737.84
2023-04-16T21:58:38.814Z,102731.94
2023-04-16T22:01:06.492Z,102736.75
2023-04-16T22:03:34.837Z,102738.63
2023-04-16T22:06:02.154Z,102738.09
2023-04-16T22:08:29.909Z,102740.97
2023-04-16T22:10:58.910Z,102742.38
2023-04-16T22:13:30.199Z,102735.53
2023-04-16T22:15:57.909Z,102731.00
2023-04-16T22:18:25.844Z,102737.94
2023-04-16T22:20:56.058Z,102732.81
2023-04-16T22:23:26.207Z,102733.03
2023-04-16T22:25:55.081Z,102733.03
2023-04-16T22:28:22.089Z,102740.72
2023-04-16T22:30:48.992Z,102740.09
2023-04-16T22:33:16.042Z,102740.09
2023-04-16T22:35:42.949Z,102733.97
2023-04-16T22:38:10.308Z,102739.91
2023-04-16T22:40:37.378Z,102736.16
2023-04-16T22:43:04.695Z,102734.53
2023-04-16T22:45:31.662Z,102730.22
2023-04-16T22:47:58.749Z,102727.56
2023-04-16T22:50:25.650Z,102730.75
2023-04-16T22:52:52.461Z,102728.31
2023-04-16T22:55:19.479Z,102726.38
2023-04-16T22:57:47.687Z,102725.31
2023-04-16T23:00:18.112Z,102724.97
2023-04-16T23:02:45.741Z,102719.88
2023-04-16T23:05:12.660Z,102727.66
2023-04-16T23:07:39.512Z,102733.00
2023-04-16T23:10:08.741Z,102723.06
2023-04-16T23:12:37.583Z,102733.53
2023-04-16T23:15:06.844Z,102736.75
2023-04-16T23:17:34.084Z,102733.78
2023-04-16T23:20:01.151Z,102729.50
2023-04-16T23:22:28.195Z,102732.53
2023-04-16T23:24:55.129Z,102729.50
2023-04-16T23:27:22.010Z,102736.41
2023-04-16T23:29:48.890Z,102734.22
2023-04-16T23:32:15.787Z,102740.66
2023-04-16T23:34:42.626Z,102736.09
2023-04-16T23:37:09.517Z,102735.50
2023-04-16T23:39:36.358Z,102737.09
2023-04-16T23:42:03.397Z,102741.38
2023-04-16T23:44:30.302Z,102741.72
2023-04-16T23:46:57.536Z,102743.94
2023-04-16T23:49:24.794Z,102736.91
2023-04-16T23:51:51.715Z,102726.41
2023-04-16T23:54:18.703Z,102736.28
2023-04-16T23:56:45.753Z,102741.66
2023-04-16T23:59:12.954Z,102735.56
